Time;durP1;ratioP1;P1;durP2;ratioP2;P2;SDS_P1;SDS_P2;PMS_P1;PMS_P2;Temp;Humidity;BMP_temperature;BMP_pressure;BME280_temperature;BME280_humidity;BME280_pressure;Samples;Min_cycle;Max_cycle;Signal;HPM_P1;HPM_P2
2022/11/08 00:03:07;;;;;;;;;;;;;;;5.92;100.00;95784.22;10452164;28;2031;-73
2022/11/08 00:18:52;;;;;;;;;;;;;;;5.82;100.00;95786.69;10498309;28;2031;-66
2022/11/08 00:23:55;;;;;;;;;;;;;;;5.87;100.00;95792.09;10491912;28;2092;-66
2022/11/08 00:28:59;;;;;;;;;;;;;;;5.86;100.00;95779.81;10494527;28;2095;-67
2022/11/08 00:34:02;;;;;;;;;;;;;;;5.79;100.00;95784.53;10489298;28;2038;-73
2022/11/08 00:39:05;;;;;;;;;;;;;;;5.67;100.00;95781.94;10487694;28;2016;-73
2022/11/08 00:44:08;;;;;;;;;;;;;;;5.74;100.00;95781.75;10489485;28;1965;-72
2022/11/08 00:49:11;;;;;;;;;;;;;;;5.66;100.00;95776.81;10490984;28;1956;-69
2022/11/08 00:54:15;;;;;;;;;;;;;;;5.55;100.00;95765.19;10492363;28;2157;-68
2022/11/08 00:59:18;;;;;;;;;;;;;;;5.47;100.00;95764.78;10491098;28;2173;-71
2022/11/08 01:04:21;;;;;;;;;;;;;;;5.37;100.00;95760.91;10490195;28;2086;-67
2022/11/08 01:09:24;;;;;;;;;;;;;;;5.32;100.00;95755.47;10488468;28;2015;-73
2022/11/08 01:14:30;;;;;;;;;;;;;;;5.34;100.00;95740.06;10483952;28;2066;-68
2022/11/08 01:19:33;;;;;;;;;;;;;;;5.23;100.00;95732.94;10483771;28;2120;-67
2022/11/08 01:24:36;;;;;;;;;;;;;;;5.22;100.00;95734.00;10485428;28;1994;-70
2022/11/08 01:29:39;;;;;;;;;;;;;;;5.10;100.00;95733.25;10487386;28;2097;-65
2022/11/08 01:34:42;;;;;;;;;;;;;;;5.01;100.00;95722.16;10489006;28;2093;-67
2022/11/08 01:39:45;;;;;;;;;;;;;;;5.07;100.00;95728.38;10491283;28;2087;-73
2022/11/08 01:44:49;;;;;;;;;;;;;;;4.99;100.00;95715.47;10487846;28;2038;-65
2022/11/08 01:49:52;;;;;;;;;;;;;;;4.92;100.00;95715.63;10485641;28;2108;-67
2022/11/08 01:54:55;;;;;;;;;;;;;;;4.74;100.00;95705.97;10502284;28;2456;-67
2022/11/08 01:59:58;;;;;;;;;;;;;;;4.69;100.00;95710.38;10494685;28;1994;-66
2022/11/08 02:05:02;;;;;;;;;;;;;;;4.61;100.00;95698.25;10495502;28;2199;-68
2022/11/08 02:10:07;;;;;;;;;;;;;;;4.56;100.00;95698.16;10498864;28;1909;-66
2022/11/08 02:15:11;;;;;;;;;;;;;;;4.52;100.00;95683.72;10498463;28;2100;-67
2022/11/08 02:20:15;;;;;;;;;;;;;;;4.57;100.00;95681.94;10495880;28;2069;-69
2022/11/08 02:25:18;;;;;;;;;;;;;;;4.64;100.00;95684.47;10497372;28;2039;-66
2022/11/08 02:30:21;;;;;;;;;;;;;;;4.65;100.00;95682.63;10494935;28;1985;-67
2022/11/08 02:35:24;;;;;;;;;;;;;;;4.64;100.00;95676.47;10495776;28;2072;-66
2022/11/08 02:40:27;;;;;;;;;;;;;;;4.56;100.00;95676.84;10496314;28;2225;-66
2022/11/08 02:45:30;;;;;;;;;;;;;;;4.57;100.00;95668.63;10494733;28;2081;-66
2022/11/08 02:50:34;;;;;;;;;;;;;;;4.47;100.00;95670.31;10494882;28;2126;-66
2022/11/08 02:55:37;;;;;;;;;;;;;;;4.41;100.00;95661.41;10501894;28;2205;-66
2022/11/08 03:00:40;;;;;;;;;;;;;;;4.39;100.00;95660.03;10489402;28;2055;-67
2022/11/08 03:05:46;;;;;;;;;;;;;;;4.26;100.00;95658.44;10490656;28;2044;-67
2022/11/08 03:10:49;;;;;;;;;;;;;;;4.20;100.00;95649.59;10493377;28;2050;-68
2022/11/08 03:15:52;;;;;;;;;;;;;;;4.20;100.00;95644.25;10495235;28;2148;-65
2022/11/08 03:21:01;;;;;;;;;;;;;;;4.20;100.00;95643.44;10496829;28;2047;-65
2022/11/08 03:26:05;;;;;;;;;;;;;;;4.13;100.00;95645.41;10493694;28;2081;-71
2022/11/08 03:31:08;;;;;;;;;;;;;;;4.10;100.00;95649.38;10491120;28;2030;-71
2022/11/08 03:36:11;;;;;;;;;;;;;;;4.04;100.00;95660.94;10494654;28;2097;-65
2022/11/08 03:41:16;;;;;;;;;;;;;;;3.93;100.00;95665.25;10491572;28;2042;-71
2022/11/08 03:46:19;;;;;;;;;;;;;;;3.89;100.00;95663.31;10452378;28;1188005;-67
2022/11/08 03:51:22;;;;;;;;;;;;;;;3.96;100.00;95658.66;10495624;28;2186;-68
2022/11/08 03:56:26;;;;;;;;;;;;;;;3.99;100.00;95650.19;10495451;28;1995;-66
2022/11/08 04:01:30;;;;;;;;;;;;;;;3.88;100.00;95643.88;10491941;28;2021;-65
2022/11/08 04:06:34;;;;;;;;;;;;;;;3.88;100.00;95646.53;10489237;28;2130;-64
2022/11/08 04:16:59;;;;;;;;;;;;;;;4.00;100.00;95627.88;10489871;28;1972;-65
2022/11/08 04:22:02;;;;;;;;;;;;;;;4.02;100.00;95631.13;10493436;28;2155;-65
2022/11/08 04:27:06;;;;;;;;;;;;;;;4.08;100.00;95624.88;10489496;28;2088;-67
2022/11/08 04:32:09;;;;;;;;;;;;;;;4.06;100.00;95624.28;10489586;28;2030;-65
2022/11/08 04:37:12;;;;;;;;;;;;;;;3.99;100.00;95620.94;10492428;28;2142;-65
2022/11/08 04:42:15;;;;;;;;;;;;;;;3.95;100.00;95620.63;10485199;28;2101;-74
2022/11/08 04:47:18;;;;;;;;;;;;;;;3.91;100.00;95622.13;10489975;28;2039;-77
2022/11/08 04:52:21;;;;;;;;;;;;;;;3.87;100.00;95606.88;10468388;28;1888;-77
2022/11/08 04:57:25;;;;;;;;;;;;;;;3.82;100.00;95604.09;10491078;28;1925;-78
2022/11/08 05:02:28;;;;;;;;;;;;;;;3.70;100.00;95596.19;10491914;28;2042;-77
2022/11/08 05:07:31;;;;;;;;;;;;;;;3.67;100.00;95608.06;10490192;28;2063;-78
2022/11/08 05:12:35;;;;;;;;;;;;;;;3.68;100.00;95599.03;10490578;28;2384;-78
2022/11/08 05:17:40;;;;;;;;;;;;;;;3.74;100.00;95589.34;10491788;28;2048;-76
2022/11/08 05:28:05;;;;;;;;;;;;;;;3.72;100.00;95584.25;10487984;28;2015;-75
2022/11/08 05:33:12;;;;;;;;;;;;;;;3.58;100.00;95588.22;10488301;28;2005;-75
2022/11/08 05:38:15;;;;;;;;;;;;;;;3.53;100.00;95580.13;10492285;28;2158;-74
2022/11/08 05:43:20;;;;;;;;;;;;;;;3.51;100.00;95593.66;10486851;28;2018;-74
2022/11/08 05:48:23;;;;;;;;;;;;;;;3.50;100.00;95581.41;10491224;28;2004;-75
2022/11/08 05:53:37;;;;;;;;;;;;;;;3.42;100.00;95578.28;10509704;28;2054;-77
2022/11/08 05:58:40;;;;;;;;;;;;;;;3.39;100.00;95584.09;10489246;28;2076;-75
2022/11/08 06:03:43;;;;;;;;;;;;;;;3.31;100.00;95589.75;10485803;28;2135;-76
2022/11/08 06:08:46;;;;;;;;;;;;;;;3.28;100.00;95587.56;10489146;28;2104;-77
2022/11/08 06:13:53;;;;;;;;;;;;;;;3.33;100.00;95591.13;10485283;28;2031;-75
2022/11/08 06:19:11;;;;;;;;;;;;;;;3.41;100.00;95589.97;10493187;28;2097;-76
2022/11/08 06:24:16;;;;;;;;;;;;;;;3.38;100.00;95593.91;10500021;28;1904;-79
2022/11/08 06:29:19;;;;;;;;;;;;;;;3.44;100.00;95592.97;10493794;28;1983;-77
2022/11/08 06:34:22;;;;;;;;;;;;;;;3.46;100.00;95598.06;10503146;28;1953;-80
2022/11/08 06:39:32;;;;;;;;;;;;;;;3.66;100.00;95598.47;10510960;28;2029;-79
2022/11/08 06:44:36;;;;;;;;;;;;;;;3.83;100.00;95600.44;10528725;27;2133;-79
2022/11/08 06:49:39;;;;;;;;;;;;;;;4.02;100.00;95599.22;10500482;28;2041;-80
2022/11/08 06:54:42;;;;;;;;;;;;;;;4.24;100.00;95597.50;10504187;28;2124;-80
2022/11/08 06:59:45;;;;;;;;;;;;;;;4.48;100.00;95602.72;10491953;28;2071;-78
2022/11/08 07:04:51;;;;;;;;;;;;;;;4.66;100.00;95607.03;10485133;28;1913;-78
2022/11/08 07:09:54;;;;;;;;;;;;;;;4.75;100.00;95593.06;10486477;28;2146;-77
2022/11/08 07:15:05;;;;;;;;;;;;;;;4.83;100.00;95597.97;10489123;28;1993;-78
2022/11/08 07:20:08;;;;;;;;;;;;;;;5.04;100.00;95593.00;10495173;28;1958;-78
2022/11/08 07:25:11;;;;;;;;;;;;;;;5.16;100.00;95591.06;10494242;28;2027;-80
2022/11/08 07:30:14;;;;;;;;;;;;;;;5.15;100.00;95594.75;10497023;28;1968;-77
2022/11/08 07:35:18;;;;;;;;;;;;;;;5.25;100.00;95592.25;10492768;28;1924;-87
2022/11/08 07:40:21;;;;;;;;;;;;;;;5.37;100.00;95590.28;10489230;28;2027;-78
2022/11/08 07:45:24;;;;;;;;;;;;;;;5.55;100.00;95583.09;10494001;28;1910;-77
2022/11/08 07:50:27;;;;;;;;;;;;;;;5.74;100.00;95584.41;10495719;28;1930;-76
2022/11/08 07:55:31;;;;;;;;;;;;;;;6.00;100.00;95574.06;10511822;28;2088;-81
2022/11/08 08:00:35;;;;;;;;;;;;;;;6.14;100.00;95568.09;10487537;28;1991;-81
2022/11/08 08:05:38;;;;;;;;;;;;;;;6.27;100.00;95563.41;10497153;28;2023;-85
2022/11/08 08:10:41;;;;;;;;;;;;;;;6.35;100.00;95558.41;10500357;28;1978;-77
2022/11/08 08:15:44;;;;;;;;;;;;;;;6.40;100.00;95555.81;10496003;28;2017;-84
2022/11/08 08:20:48;;;;;;;;;;;;;;;6.53;100.00;95561.78;10496378;28;1975;-83
2022/11/08 08:25:52;;;;;;;;;;;;;;;6.64;100.00;95560.84;10489001;28;2071;-79
2022/11/08 08:30:56;;;;;;;;;;;;;;;6.74;100.00;95566.25;10481304;28;1960;-78
2022/11/08 08:36:00;;;;;;;;;;;;;;;7.05;100.00;95557.41;10496322;28;1939;-85
2022/11/08 08:41:04;;;;;;;;;;;;;;;7.25;100.00;95566.63;10496896;28;1980;-88
2022/11/08 08:46:07;;;;;;;;;;;;;;;7.53;100.00;95557.47;10494431;28;2060;-82
2022/11/08 08:51:10;;;;;;;;;;;;;;;7.85;100.00;95549.31;10495079;28;2076;-82
2022/11/08 08:56:13;;;;;;;;;;;;;;;7.98;100.00;95548.84;10490276;28;1972;-79
2022/11/08 09:01:17;;;;;;;;;;;;;;;8.08;100.00;95548.09;10498249;28;2001;-82
2022/11/08 09:06:40;;;;;;;;;;;;;;;8.40;100.00;95555.97;10499508;28;2213;-83
2022/11/08 09:11:43;;;;;;;;;;;;;;;9.01;100.00;95555.19;10478809;28;2008;-79
2022/11/08 09:21:52;;;;;;;;;;;;;;;9.51;100.00;95538.25;10488500;28;2078;-81
2022/11/08 09:26:56;;;;;;;;;;;;;;;9.94;100.00;95542.13;10493869;28;2052;-79
2022/11/08 09:31:59;;;;;;;;;;;;;;;9.99;100.00;95542.13;10485532;28;2078;-81
2022/11/08 09:37:02;;;;;;;;;;;;;;;9.97;100.00;95546.13;10487220;28;2010;-78
2022/11/08 09:42:06;;;;;;;;;;;;;;;10.00;100.00;95535.66;10486632;28;2112;-77
2022/11/08 09:47:09;;;;;;;;;;;;;;;10.15;100.00;95545.53;10492316;28;2023;-79
2022/11/08 09:52:12;;;;;;;;;;;;;;;10.37;100.00;95560.47;10484619;28;2054;-81
2022/11/08 09:57:16;;;;;;;;;;;;;;;10.31;100.00;95550.84;10482846;28;1992;-79
2022/11/08 10:02:19;;;;;;;;;;;;;;;10.42;100.00;95537.06;10481674;28;2054;-80
2022/11/08 10:07:23;;;;;;;;;;;;;;;10.79;100.00;95543.81;10489046;28;1928;-85
2022/11/08 10:12:29;;;;;;;;;;;;;;;11.09;97.86;95529.34;10499498;28;2069;-88
2022/11/08 10:17:33;;;;;;;;;;;;;;;11.48;91.62;95541.88;10491608;28;2144;-80
2022/11/08 10:22:36;;;;;;;;;;;;;;;11.95;90.14;95529.56;10484119;28;1897;-78
2022/11/08 10:27:42;;;;;;;;;;;;;;;12.26;83.55;95525.38;10484608;28;2026;-82
2022/11/08 10:32:46;;;;;;;;;;;;;;;12.03;86.16;95524.34;10477725;28;2161;-78
2022/11/08 10:37:50;;;;;;;;;;;;;;;12.10;85.73;95515.91;10489158;28;2044;-77
2022/11/08 10:42:53;;;;;;;;;;;;;;;11.82;85.67;95504.91;10492495;28;2015;-78
2022/11/08 10:47:57;;;;;;;;;;;;;;;11.49;94.12;95511.19;10488773;28;2019;-77
2022/11/08 10:53:01;;;;;;;;;;;;;;;11.54;89.55;95513.84;10491613;28;2333;-77
2022/11/08 10:58:04;;;;;;;;;;;;;;;11.65;92.97;95507.25;10491514;28;1997;-75
2022/11/08 11:03:08;;;;;;;;;;;;;;;12.04;90.20;95500.91;10490593;28;2108;-77
2022/11/08 11:08:14;;;;;;;;;;;;;;;12.23;86.86;95501.72;10492812;28;1992;-77
2022/11/08 11:13:18;;;;;;;;;;;;;;;12.35;83.95;95502.09;10492605;28;2026;-77
2022/11/08 11:18:21;;;;;;;;;;;;;;;12.44;86.42;95497.63;10490961;28;2095;-79
2022/11/08 11:23:25;;;;;;;;;;;;;;;12.50;84.16;95498.38;10496289;28;1979;-77
2022/11/08 11:28:29;;;;;;;;;;;;;;;12.54;82.83;95491.31;10490666;28;2208;-76
2022/11/08 11:33:32;;;;;;;;;;;;;;;12.63;82.36;95489.53;10498001;28;2072;-80
2022/11/08 11:38:35;;;;;;;;;;;;;;;12.90;78.98;95475.34;10504402;28;1950;-77
2022/11/08 11:43:41;;;;;;;;;;;;;;;12.88;77.55;95477.53;10500822;28;1948;-77
2022/11/08 11:48:44;;;;;;;;;;;;;;;12.72;77.06;95473.47;10501267;28;1970;-78
2022/11/08 11:53:48;;;;;;;;;;;;;;;13.12;73.97;95474.72;10495109;28;2089;-75
2022/11/08 11:58:51;;;;;;;;;;;;;;;13.13;78.40;95480.91;10494410;28;2024;-73
2022/11/08 12:03:55;;;;;;;;;;;;;;;12.96;80.91;95473.38;10493734;28;2101;-73
2022/11/08 12:08:58;;;;;;;;;;;;;;;13.26;79.57;95480.16;10492255;28;1955;-74
2022/11/08 12:14:01;;;;;;;;;;;;;;;13.23;80.73;95478.06;10487727;28;2282;-74
2022/11/08 12:19:04;;;;;;;;;;;;;;;13.23;79.51;95472.66;10488394;28;1956;-72
2022/11/08 12:24:10;;;;;;;;;;;;;;;13.13;83.88;95478.22;10485127;28;2269;-69
2022/11/08 12:29:16;;;;;;;;;;;;;;;13.12;83.32;95469.31;10488991;28;2062;-69
2022/11/08 12:34:19;;;;;;;;;;;;;;;13.12;82.83;95466.63;10483528;28;2001;-69
2022/11/08 12:39:22;;;;;;;;;;;;;;;13.19;82.67;95466.25;10482375;28;2276;-70
2022/11/08 12:44:26;;;;;;;;;;;;;;;13.30;85.61;95467.69;10482438;28;1949;-69
2022/11/08 12:49:29;;;;;;;;;;;;;;;13.40;84.45;95464.78;10480008;28;1976;-70
2022/11/08 12:54:33;;;;;;;;;;;;;;;13.31;86.83;95474.69;10486269;28;2225;-72
2022/11/08 12:59:36;;;;;;;;;;;;;;;13.56;86.47;95472.63;10480858;28;1967;-69
2022/11/08 13:04:39;;;;;;;;;;;;;;;13.62;88.43;95476.81;10480296;28;1960;-70
2022/11/08 13:09:43;;;;;;;;;;;;;;;13.64;93.35;95475.41;10481491;28;2058;-71
2022/11/08 13:14:46;;;;;;;;;;;;;;;13.70;93.45;95476.91;10481447;28;2061;-70
2022/11/08 13:19:49;;;;;;;;;;;;;;;13.64;96.32;95488.13;10484198;28;2021;-69
2022/11/08 13:24:53;;;;;;;;;;;;;;;13.56;98.12;95488.81;10479281;28;1964;-68
2022/11/08 13:29:56;;;;;;;;;;;;;;;13.33;100.00;95488.69;10479716;28;1979;-69
2022/11/08 13:34:59;;;;;;;;;;;;;;;13.15;100.00;95498.41;10482273;28;2015;-70
2022/11/08 13:40:09;;;;;;;;;;;;;;;13.19;100.00;95494.03;10480185;28;1999;-70
2022/11/08 13:45:13;;;;;;;;;;;;;;;13.19;100.00;95499.44;10481361;28;2151;-70
2022/11/08 13:50:16;;;;;;;;;;;;;;;13.09;100.00;95490.69;10489624;28;2055;-70
2022/11/08 13:55:19;;;;;;;;;;;;;;;12.82;100.00;95488.72;10489400;28;2109;-69
2022/11/08 14:00:23;;;;;;;;;;;;;;;12.69;100.00;95491.06;10487718;28;1980;-69
2022/11/08 14:05:26;;;;;;;;;;;;;;;12.77;100.00;95480.69;10488590;28;2022;-70
2022/11/08 14:10:29;;;;;;;;;;;;;;;12.60;100.00;95475.84;10486755;28;1971;-71
2022/11/08 14:15:32;;;;;;;;;;;;;;;12.44;100.00;95478.75;10486214;28;1972;-70
2022/11/08 14:20:36;;;;;;;;;;;;;;;12.49;100.00;95474.41;10493579;28;1981;-69
2022/11/08 14:25:39;;;;;;;;;;;;;;;12.49;100.00;95471.72;10491167;28;2114;-69
2022/11/08 14:30:42;;;;;;;;;;;;;;;12.52;100.00;95479.19;10491559;28;2049;-69
2022/11/08 14:35:52;;;;;;;;;;;;;;;12.41;100.00;95483.97;10488753;28;2070;-70
2022/11/08 14:40:57;;;;;;;;;;;;;;;12.41;100.00;95482.06;10490182;28;2054;-70
2022/11/08 14:46:00;;;;;;;;;;;;;;;12.49;100.00;95477.09;10488076;28;2104;-70
2022/11/08 14:51:04;;;;;;;;;;;;;;;12.37;100.00;95478.34;10488519;28;2071;-69
2022/11/08 14:56:07;;;;;;;;;;;;;;;12.05;100.00;95476.34;10491316;28;1979;-72
2022/11/08 15:01:10;;;;;;;;;;;;;;;11.96;100.00;95482.66;10488213;28;2107;-69
2022/11/08 15:06:14;;;;;;;;;;;;;;;11.80;100.00;95482.84;10483614;28;1948;-70
2022/11/08 15:11:27;;;;;;;;;;;;;;;11.66;100.00;95473.84;10483309;28;2106;-71
2022/11/08 15:16:30;;;;;;;;;;;;;;;11.62;100.00;95470.94;10484757;28;1978;-71
2022/11/08 15:21:33;;;;;;;;;;;;;;;11.57;100.00;95462.91;10489134;28;2083;-70
2022/11/08 15:26:40;;;;;;;;;;;;;;;11.60;100.00;95464.22;10485138;28;2147;-74
2022/11/08 15:31:43;;;;;;;;;;;;;;;11.44;100.00;95470.88;10486554;28;1964;-73
2022/11/08 15:36:46;;;;;;;;;;;;;;;11.23;100.00;95460.31;10485407;28;2008;-71
2022/11/08 15:41:50;;;;;;;;;;;;;;;11.11;100.00;95457.22;10485196;28;2105;-70
2022/11/08 15:46:53;;;;;;;;;;;;;;;11.07;100.00;95473.13;10486935;28;2274;-71
2022/11/08 15:51:57;;;;;;;;;;;;;;;10.94;100.00;95470.28;10487729;28;1970;-69
2022/11/08 15:57:00;;;;;;;;;;;;;;;10.71;100.00;95469.97;10490359;28;2137;-71
2022/11/08 16:02:03;;;;;;;;;;;;;;;10.52;100.00;95466.34;10489053;28;2133;-78
2022/11/08 16:07:06;;;;;;;;;;;11.50;99.90;;;10.40;100.00;95457.84;10484294;28;1984;-78
2022/11/08 16:12:09;;;;;;;;;;;11.10;99.90;;;10.35;100.00;95455.19;10484101;28;2009;-77
2022/11/08 16:17:12;;;;;;;;;;;11.40;99.90;;;10.18;100.00;95459.03;10488935;28;1990;-78
2022/11/08 16:22:14;;;;;;;;;;;11.30;99.90;;;10.21;100.00;95458.47;10484204;28;2211;-76
2022/11/08 16:27:20;;;;;;;;;;;11.30;99.90;;;10.02;100.00;95461.00;10485689;28;2003;-77
2022/11/08 16:32:31;;;;;;;;;;;11.20;99.90;;;9.96;100.00;95466.66;10486162;28;1974;-77
2022/11/08 16:37:34;;;;;;;;;;;11.10;99.90;;;9.87;100.00;95460.28;10494412;28;1921;-76
2022/11/08 16:42:37;;;;;;;;;;;10.90;99.90;;;9.58;100.00;95468.97;10513389;28;1886;-79
2022/11/08 16:47:39;;;;;;;;;;;10.80;99.90;;;9.54;100.00;95467.91;10517287;28;1870;-76
2022/11/08 16:52:42;;;;;;;;;;;10.70;99.90;;;9.45;100.00;95472.25;10522222;28;3080;-76
2022/11/08 16:57:45;;;;;;;;;;;10.60;99.90;;;9.34;100.00;95468.00;10517784;28;1910;-69
2022/11/08 17:02:48;;;;;;;;;;;10.50;99.90;;;9.21;100.00;95470.16;10512096;28;1939;-74
2022/11/08 17:07:51;;;;;;;;;;;10.30;99.90;;;9.14;100.00;95468.84;10520166;28;1744;-69
2022/11/08 17:12:53;;;;;;;;;;;10.20;99.90;;;9.06;100.00;95472.88;10525910;28;1830;-70
2022/11/08 17:17:57;;;;;;;;;;;10.20;99.90;;;9.11;100.00;95475.56;10523953;28;1917;-69
2022/11/08 17:23:00;;;;;;;;;;;10.20;99.90;;;9.08;100.00;95477.97;10521139;28;2178;-74
2022/11/08 17:28:04;;;;;;;;;;;10.00;99.90;;;9.07;100.00;95484.41;10528109;28;1712;-69
2022/11/08 17:33:07;;;;;;;;;;;10.00;99.90;;;9.09;100.00;95483.06;10527391;28;1988;-69
2022/11/08 17:38:10;;;;;;;;;;;10.00;99.90;;;9.15;100.00;95481.97;10524005;28;1972;-69
2022/11/08 17:43:14;;;;;;;;;;;10.00;99.90;;;9.02;100.00;95487.91;10515944;28;1776;-70
2022/11/08 17:48:20;;;;;;;;;;;;;;;8.88;100.00;95489.53;10525161;28;1749;-68
2022/11/08 17:53:23;;;;;;;;;;;9.90;99.90;;;8.75;100.00;95493.56;10522548;28;1795;-70
2022/11/08 17:58:26;;;;;;;;;;;9.60;99.90;;;8.71;100.00;95486.31;10516382;28;1969;-69
2022/11/08 18:03:29;;;;;;;;;;;9.80;99.90;;;8.74;100.00;95493.84;10527241;28;1796;-70
2022/11/08 18:08:31;;;;;;;;;;;9.70;99.90;;;8.78;100.00;95494.88;10521640;28;1801;-69
2022/11/08 18:13:35;;;;;;;;;;;9.70;99.90;;;8.98;100.00;95494.91;10524748;28;1840;-67
2022/11/08 18:18:38;;;;;;;;;;;9.70;99.90;;;8.97;100.00;95495.13;10526716;28;1898;-69
2022/11/08 18:23:41;;;;;;;;;;;9.80;99.90;;;9.08;100.00;95494.88;10519372;28;1784;-69
2022/11/08 18:28:43;;;;;;;;;;;9.90;99.90;;;9.34;100.00;95490.25;10524236;28;1808;-68
2022/11/08 18:33:46;;;;;;;;;;;10.10;99.90;;;9.24;100.00;95484.13;10517927;28;2138;-69
2022/11/08 18:38:50;;;;;;;;;;;10.10;99.90;;;9.25;100.00;95478.47;10529943;28;1973;-69
2022/11/08 18:43:52;;;;;;;;;;;10.20;99.90;;;9.20;100.00;95473.13;10530245;28;1869;-68
2022/11/08 18:48:55;;;;;;;;;;;10.10;99.90;;;9.17;100.00;95485.22;10530511;28;1873;-69
2022/11/08 18:53:59;;;;;;;;;;;10.00;99.90;;;9.20;100.00;95473.13;10536128;28;1692;-69
2022/11/08 18:59:01;;;;;;;;;;;10.00;99.90;;;9.30;100.00;95475.78;10521842;28;1986;-69
2022/11/08 19:04:04;;;;;;;;;;;10.20;99.90;;;9.18;100.00;95486.00;10488385;28;2027;-69
2022/11/08 19:09:07;;;;;;;;;;;10.10;99.90;;;9.06;100.00;95493.53;10491112;28;2012;-70
2022/11/08 19:14:09;;;;;;;;;;;10.00;99.90;;;9.02;100.00;95487.91;10490218;28;2037;-69
2022/11/08 19:19:13;;;;;;;;;;;10.00;99.90;;;9.11;100.00;95486.28;10497507;28;2025;-74
2022/11/08 19:24:16;;;;;;;;;;;10.00;99.90;;;9.06;100.00;95494.34;10493626;28;2083;-71
2022/11/08 19:29:19;;;;;;;;;;;10.00;99.90;;;9.18;100.00;95494.06;10497012;28;1987;-69
2022/11/08 19:34:23;;;;;;;;;;;10.00;99.90;;;9.01;100.00;95496.22;10494892;28;2068;-68
2022/11/08 19:39:26;;;;;;;;;;;10.00;99.90;;;9.07;100.00;95489.78;10493297;28;2112;-68
2022/11/08 19:44:30;;;;;;;;;;;10.00;99.90;;;9.07;100.00;95497.81;10494384;28;2074;-72
2022/11/08 19:49:35;;;;;;;;;;;10.00;99.90;;;9.06;100.00;95507.75;10495518;28;2033;-72
2022/11/08 19:54:38;;;;;;;;;;;10.10;99.90;;;9.09;100.00;95504.50;10493520;28;1996;-68
2022/11/08 19:59:41;;;;;;;;;;;10.00;99.90;;;9.12;100.00;95500.50;10513583;28;2273;-71
2022/11/08 20:04:45;;;;;;;;;;;10.00;99.90;;;9.18;100.00;95500.22;10494900;28;1983;-71
2022/11/08 20:09:47;;;;;;;;;;;10.10;99.90;;;9.30;100.00;95491.09;10497733;28;2116;-70
2022/11/08 20:14:50;;;;;;;;;;;10.10;99.90;;;9.35;100.00;95496.41;10493038;28;2026;-67
2022/11/08 20:19:57;;;;;;;;;;;10.30;99.90;;;9.36;100.00;95495.38;10502795;28;1975;-67
2022/11/08 20:25:00;;;;;;;;;;;10.20;99.90;;;9.39;100.00;95486.75;10496886;28;1982;-69
2022/11/08 20:30:02;;;;;;;;;;;10.30;99.90;;;9.50;100.00;95480.28;10494571;28;1959;-67
2022/11/08 20:35:05;;;;;;;;;;;10.40;99.90;;;9.43;100.00;95485.94;10491444;28;2045;-69
2022/11/08 20:40:10;;;;;;;;;;;10.30;99.90;;;9.26;100.00;95484.66;10493842;28;2083;-68
2022/11/08 20:45:13;;;;;;;;;;;10.30;99.90;;;9.12;100.00;95479.84;10490916;28;2050;-69
2022/11/08 20:50:16;;;;;;;;;;;10.20;99.90;;;8.95;100.00;95487.38;10490627;28;2012;-67
2022/11/08 20:55:19;;;;;;;;;;;10.00;99.90;;;8.81;100.00;95480.97;10491876;28;2070;-68
2022/11/08 21:00:22;;;;;;;;;;;9.80;99.90;;;8.51;100.00;95482.56;10490072;28;2046;-67
2022/11/08 21:05:45;;;;;;;;;;;9.70;99.90;;;8.32;100.00;95487.59;10491694;28;2104;-67
2022/11/08 21:10:48;;;;;;;;;;;9.50;99.90;;;8.16;100.00;95488.66;10495681;28;2162;-68
2022/11/08 21:15:51;;;;;;;;;;;9.30;99.90;;;8.02;100.00;95496.41;10489486;28;2046;-67
2022/11/08 21:20:54;;;;;;;;;;;9.20;99.90;;;7.93;100.00;95486.47;10493093;28;2027;-68
2022/11/08 21:26:03;;;;;;;;;;;9.10;99.90;;;7.80;100.00;95501.13;10490281;28;2023;-68
2022/11/08 21:31:06;;;;;;;;;;;9.00;99.90;;;7.69;100.00;95497.59;10489803;28;1995;-68
2022/11/08 21:36:09;;;;;;;;;;;9.10;99.90;;;7.61;100.00;95494.63;10489741;28;2080;-69
2022/11/08 21:41:12;;;;;;;;;;;8.80;99.90;;;7.56;100.00;95490.06;10489536;28;2015;-68
2022/11/08 21:46:14;;;;;;;;;;;8.70;99.90;;;7.52;100.00;95489.81;10487981;28;1993;-68
2022/11/08 21:51:17;;;;;;;;;;;8.60;99.90;;;7.48;100.00;95486.03;10497102;28;2046;-68
2022/11/08 21:56:20;;;;;;;;;;;8.60;99.90;;;7.41;100.00;95474.75;10490194;28;2051;-68
2022/11/08 22:01:23;;;;;;;;;;;8.50;99.90;;;7.45;100.00;95475.06;10492447;28;2054;-68
2022/11/08 22:06:32;;;;;;;;;;;8.50;99.90;;;7.49;100.00;95482.28;10496729;28;2047;-69
2022/11/08 22:11:37;;;;;;;;;;;8.40;99.90;;;7.49;100.00;95482.28;10497228;28;1994;-66
2022/11/08 22:16:40;;;;;;;;;;;8.50;99.90;;;7.49;100.00;95478.81;10494301;28;1981;-68
2022/11/08 22:21:44;;;;;;;;;;;8.50;99.90;;;7.40;100.00;95470.50;10495387;28;2398;-68
2022/11/08 22:26:47;;;;;;;;;;;8.40;99.90;;;7.41;100.00;95468.63;10495159;28;1980;-66
2022/11/08 22:31:50;;;;;;;;;;;8.40;99.90;;;7.51;100.00;95471.34;10495271;28;1996;-68
2022/11/08 22:36:53;;;;;;;;;;;8.40;99.90;;;7.38;100.00;95469.97;10494920;28;2116;-68
2022/11/08 22:41:56;;;;;;;;;;;8.50;99.90;;;7.26;100.00;95466.69;10496036;28;2472;-68
2022/11/08 22:46:59;;;;;;;;;;;8.40;99.90;;;7.23;100.00;95456.50;10493948;28;2007;-68
2022/11/08 22:52:02;;;;;;;;;;;;;;;7.19;100.00;95466.91;10498926;28;1980;-67
2022/11/08 22:57:06;;;;;;;;;;;;;;;7.13;100.00;95469.81;10495351;28;2037;-71
2022/11/08 23:02:10;;;;;;;;;;;;;;;7.10;100.00;95467.66;10497295;28;2201;-66
2022/11/08 23:07:13;;;;;;;;;;;;;;;7.05;100.00;95473.75;10493869;28;1959;-66
2022/11/08 23:17:37;;;;;;;;;;;;;;;6.88;100.00;95457.91;10492058;28;1960;-68
2022/11/08 23:33:22;;;;;;;;;;;;;;;6.80;100.00;95458.38;10491693;28;2487;-67
2022/11/08 23:38:25;;;;;;;;;;;;;;;6.73;100.00;95463.94;10492313;28;2007;-68
2022/11/08 23:48:49;;;;;;;;;;;;;;;6.71;100.00;95462.59;10491597;28;2091;-68
2022/11/08 23:53:52;;;;;;;;;;;;;;;6.65;100.00;95450.28;10489146;28;1949;-69
2022/11/08 23:58:55;;;;;;;;;;;;;;;6.73;100.00;95444.44;10499642;28;2175;-68
